sensor_id;sensor_type;location;lat;lon;timestamp;P1;durP1;ratioP1;P2;durP2;ratioP2
64851;SDS011;56050;55.558;-4.644;2024-03-07T00:00:33;10.60;;;4.53;;
64851;SDS011;56050;55.558;-4.644;2024-03-07T00:02:59;11.95;;;5.57;;
64851;SDS011;56050;55.558;-4.644;2024-03-07T00:05:25;14.20;;;5.90;;
64851;SDS011;56050;55.558;-4.644;2024-03-07T00:07:51;14.50;;;6.55;;
64851;SDS011;56050;55.558;-4.644;2024-03-07T00:10:17;10.77;;;6.03;;
64851;SDS011;56050;55.558;-4.644;2024-03-07T00:12:43;13.30;;;5.20;;
64851;SDS011;56050;55.558;-4.644;2024-03-07T00:17:35;11.85;;;5.28;;
64851;SDS011;56050;55.558;-4.644;2024-03-07T00:20:02;11.50;;;4.90;;
64851;SDS011;56050;55.558;-4.644;2024-03-07T00:22:35;11.98;;;6.82;;
64851;SDS011;56050;55.558;-4.644;2024-03-07T00:25:01;15.30;;;5.90;;
64851;SDS011;56050;55.558;-4.644;2024-03-07T00:27:29;13.57;;;5.00;;
64851;SDS011;56050;55.558;-4.644;2024-03-07T00:29:55;16.70;;;5.50;;
64851;SDS011;56050;55.558;-4.644;2024-03-07T00:32:22;15.15;;;5.88;;
64851;SDS011;56050;55.558;-4.644;2024-03-07T00:34:49;14.57;;;6.05;;
64851;SDS011;56050;55.558;-4.644;2024-03-07T00:37:15;13.90;;;5.22;;
64851;SDS011;56050;55.558;-4.644;2024-03-07T00:39:42;16.63;;;6.63;;
64851;SDS011;56050;55.558;-4.644;2024-03-07T00:44:33;15.02;;;5.45;;
64851;SDS011;56050;55.558;-4.644;2024-03-07T00:46:59;12.70;;;5.90;;
64851;SDS011;56050;55.558;-4.644;2024-03-07T00:49:25;15.77;;;7.00;;
64851;SDS011;56050;55.558;-4.644;2024-03-07T00:54:17;10.70;;;4.38;;
64851;SDS011;56050;55.558;-4.644;2024-03-07T00:59:08;12.63;;;6.20;;
64851;SDS011;56050;55.558;-4.644;2024-03-07T01:04:01;16.48;;;6.65;;
64851;SDS011;56050;55.558;-4.644;2024-03-07T01:06:27;16.40;;;6.75;;
64851;SDS011;56050;55.558;-4.644;2024-03-07T01:11:18;15.68;;;4.95;;
64851;SDS011;56050;55.558;-4.644;2024-03-07T01:16:09;13.33;;;5.67;;
64851;SDS011;56050;55.558;-4.644;2024-03-07T01:21:01;13.73;;;6.10;;
64851;SDS011;56050;55.558;-4.644;2024-03-07T01:23:27;19.17;;;7.57;;
64851;SDS011;56050;55.558;-4.644;2024-03-07T01:25:56;13.45;;;7.35;;
64851;SDS011;56050;55.558;-4.644;2024-03-07T01:28:22;16.48;;;6.78;;
64851;SDS011;56050;55.558;-4.644;2024-03-07T01:30:51;17.85;;;6.80;;
64851;SDS011;56050;55.558;-4.644;2024-03-07T01:33:18;16.05;;;7.43;;
64851;SDS011;56050;55.558;-4.644;2024-03-07T01:35:44;22.63;;;7.88;;
64851;SDS011;56050;55.558;-4.644;2024-03-07T01:38:10;16.77;;;7.80;;
64851;SDS011;56050;55.558;-4.644;2024-03-07T01:40:36;19.42;;;6.63;;
64851;SDS011;56050;55.558;-4.644;2024-03-07T01:45:27;14.95;;;5.35;;
64851;SDS011;56050;55.558;-4.644;2024-03-07T01:50:20;16.02;;;6.75;;
64851;SDS011;56050;55.558;-4.644;2024-03-07T01:52:46;19.40;;;6.78;;
64851;SDS011;56050;55.558;-4.644;2024-03-07T01:55:15;19.23;;;8.18;;
64851;SDS011;56050;55.558;-4.644;2024-03-07T01:57:41;15.75;;;7.18;;
64851;SDS011;56050;55.558;-4.644;2024-03-07T02:02:34;20.38;;;7.80;;
64851;SDS011;56050;55.558;-4.644;2024-03-07T02:04:59;18.27;;;6.28;;
64851;SDS011;56050;55.558;-4.644;2024-03-07T02:07:25;15.65;;;7.25;;
64851;SDS011;56050;55.558;-4.644;2024-03-07T02:09:58;18.27;;;7.07;;
64851;SDS011;56050;55.558;-4.644;2024-03-07T02:12:25;17.02;;;5.78;;
64851;SDS011;56050;55.558;-4.644;2024-03-07T02:17:16;14.73;;;6.30;;
64851;SDS011;56050;55.558;-4.644;2024-03-07T02:22:07;15.70;;;6.50;;
64851;SDS011;56050;55.558;-4.644;2024-03-07T02:26:57;14.13;;;5.93;;
64851;SDS011;56050;55.558;-4.644;2024-03-07T02:29:24;16.92;;;5.78;;
64851;SDS011;56050;55.558;-4.644;2024-03-07T02:34:16;16.35;;;7.15;;
64851;SDS011;56050;55.558;-4.644;2024-03-07T02:39:07;22.23;;;8.30;;
64851;SDS011;56050;55.558;-4.644;2024-03-07T02:41:34;19.35;;;7.50;;
64851;SDS011;56050;55.558;-4.644;2024-03-07T02:46:28;16.15;;;6.97;;
64851;SDS011;56050;55.558;-4.644;2024-03-07T02:51:19;16.70;;;7.50;;
64851;SDS011;56050;55.558;-4.644;2024-03-07T02:56:10;18.87;;;6.90;;
64851;SDS011;56050;55.558;-4.644;2024-03-07T02:58:36;18.80;;;7.93;;
64851;SDS011;56050;55.558;-4.644;2024-03-07T03:03:30;17.30;;;7.10;;
64851;SDS011;56050;55.558;-4.644;2024-03-07T03:05:59;17.63;;;6.97;;
64851;SDS011;56050;55.558;-4.644;2024-03-07T03:10:50;23.77;;;7.82;;
64851;SDS011;56050;55.558;-4.644;2024-03-07T03:13:18;16.77;;;8.05;;
64851;SDS011;56050;55.558;-4.644;2024-03-07T03:18:09;18.13;;;8.00;;
64851;SDS011;56050;55.558;-4.644;2024-03-07T03:23:04;18.77;;;7.30;;
64851;SDS011;56050;55.558;-4.644;2024-03-07T03:25:30;16.10;;;6.75;;
64851;SDS011;56050;55.558;-4.644;2024-03-07T03:28:02;16.25;;;6.47;;
64851;SDS011;56050;55.558;-4.644;2024-03-07T03:30:28;19.05;;;7.82;;
64851;SDS011;56050;55.558;-4.644;2024-03-07T03:35:20;14.80;;;7.63;;
64851;SDS011;56050;55.558;-4.644;2024-03-07T03:37:46;17.00;;;7.05;;
64851;SDS011;56050;55.558;-4.644;2024-03-07T03:40:11;22.52;;;6.95;;
64851;SDS011;56050;55.558;-4.644;2024-03-07T03:42:40;17.17;;;6.80;;
64851;SDS011;56050;55.558;-4.644;2024-03-07T03:45:08;22.58;;;7.03;;
64851;SDS011;56050;55.558;-4.644;2024-03-07T03:47:39;14.57;;;6.60;;
64851;SDS011;56050;55.558;-4.644;2024-03-07T03:50:06;17.25;;;6.20;;
64851;SDS011;56050;55.558;-4.644;2024-03-07T03:52:34;16.08;;;6.72;;
64851;SDS011;56050;55.558;-4.644;2024-03-07T03:55:00;15.43;;;5.85;;
64851;SDS011;56050;55.558;-4.644;2024-03-07T03:57:27;17.98;;;6.45;;
64851;SDS011;56050;55.558;-4.644;2024-03-07T03:59:53;15.90;;;6.35;;
64851;SDS011;56050;55.558;-4.644;2024-03-07T04:02:20;17.52;;;7.53;;
64851;SDS011;56050;55.558;-4.644;2024-03-07T04:04:47;19.77;;;5.82;;
64851;SDS011;56050;55.558;-4.644;2024-03-07T04:07:16;16.77;;;6.68;;
64851;SDS011;56050;55.558;-4.644;2024-03-07T04:12:08;13.60;;;6.32;;
64851;SDS011;56050;55.558;-4.644;2024-03-07T04:14:37;19.60;;;6.80;;
64851;SDS011;56050;55.558;-4.644;2024-03-07T04:17:08;19.20;;;7.60;;
64851;SDS011;56050;55.558;-4.644;2024-03-07T04:19:38;15.75;;;7.05;;
64851;SDS011;56050;55.558;-4.644;2024-03-07T04:22:05;17.38;;;7.78;;
64851;SDS011;56050;55.558;-4.644;2024-03-07T04:27:00;15.43;;;6.90;;
64851;SDS011;56050;55.558;-4.644;2024-03-07T04:29:26;15.48;;;7.22;;
64851;SDS011;56050;55.558;-4.644;2024-03-07T04:31:52;21.70;;;6.55;;
64851;SDS011;56050;55.558;-4.644;2024-03-07T04:36:44;22.23;;;8.25;;
64851;SDS011;56050;55.558;-4.644;2024-03-07T04:39:09;17.30;;;7.32;;
64851;SDS011;56050;55.558;-4.644;2024-03-07T04:41:47;22.80;;;8.55;;
64851;SDS011;56050;55.558;-4.644;2024-03-07T04:44:13;17.05;;;6.18;;
64851;SDS011;56050;55.558;-4.644;2024-03-07T04:49:07;13.85;;;5.57;;
64851;SDS011;56050;55.558;-4.644;2024-03-07T04:51:34;17.50;;;6.40;;
64851;SDS011;56050;55.558;-4.644;2024-03-07T04:56:25;10.27;;;4.00;;
64851;SDS011;56050;55.558;-4.644;2024-03-07T05:01:15;14.03;;;5.00;;
64851;SDS011;56050;55.558;-4.644;2024-03-07T05:03:41;17.25;;;6.28;;
64851;SDS011;56050;55.558;-4.644;2024-03-07T05:06:07;14.43;;;5.28;;
64851;SDS011;56050;55.558;-4.644;2024-03-07T05:10:58;15.90;;;5.85;;
64851;SDS011;56050;55.558;-4.644;2024-03-07T05:13:24;14.82;;;5.70;;
64851;SDS011;56050;55.558;-4.644;2024-03-07T05:15:49;17.73;;;6.88;;
64851;SDS011;56050;55.558;-4.644;2024-03-07T05:18:15;18.98;;;7.38;;
64851;SDS011;56050;55.558;-4.644;2024-03-07T05:23:07;14.43;;;6.18;;
64851;SDS011;56050;55.558;-4.644;2024-03-07T05:25:32;17.52;;;7.03;;
64851;SDS011;56050;55.558;-4.644;2024-03-07T05:27:58;21.65;;;8.23;;
64851;SDS011;56050;55.558;-4.644;2024-03-07T05:30:24;19.60;;;8.77;;
64851;SDS011;56050;55.558;-4.644;2024-03-07T05:32:51;18.15;;;6.45;;
64851;SDS011;56050;55.558;-4.644;2024-03-07T05:37:41;17.63;;;5.90;;
64851;SDS011;56050;55.558;-4.644;2024-03-07T05:40:12;16.00;;;7.05;;
64851;SDS011;56050;55.558;-4.644;2024-03-07T05:45:03;21.60;;;6.97;;
64851;SDS011;56050;55.558;-4.644;2024-03-07T05:47:32;20.10;;;7.28;;
64851;SDS011;56050;55.558;-4.644;2024-03-07T05:52:24;19.13;;;8.47;;
64851;SDS011;56050;55.558;-4.644;2024-03-07T05:54:49;21.17;;;7.43;;
64851;SDS011;56050;55.558;-4.644;2024-03-07T05:57:14;21.45;;;7.63;;
64851;SDS011;56050;55.558;-4.644;2024-03-07T05:59:40;18.20;;;7.70;;
64851;SDS011;56050;55.558;-4.644;2024-03-07T06:02:05;22.33;;;7.90;;
64851;SDS011;56050;55.558;-4.644;2024-03-07T06:06:57;17.95;;;6.85;;
64851;SDS011;56050;55.558;-4.644;2024-03-07T06:09:23;21.80;;;8.75;;
64851;SDS011;56050;55.558;-4.644;2024-03-07T06:11:49;19.73;;;8.20;;
64851;SDS011;56050;55.558;-4.644;2024-03-07T06:14:14;20.65;;;7.95;;
64851;SDS011;56050;55.558;-4.644;2024-03-07T06:16:41;19.45;;;7.85;;
64851;SDS011;56050;55.558;-4.644;2024-03-07T06:21:33;15.15;;;5.65;;
64851;SDS011;56050;55.558;-4.644;2024-03-07T06:24:00;20.45;;;8.07;;
64851;SDS011;56050;55.558;-4.644;2024-03-07T06:26:27;19.73;;;7.75;;
64851;SDS011;56050;55.558;-4.644;2024-03-07T06:29:05;22.20;;;11.15;;
64851;SDS011;56050;55.558;-4.644;2024-03-07T06:31:31;18.17;;;6.72;;
64851;SDS011;56050;55.558;-4.644;2024-03-07T06:36:23;19.10;;;7.53;;
64851;SDS011;56050;55.558;-4.644;2024-03-07T06:38:50;22.65;;;8.85;;
64851;SDS011;56050;55.558;-4.644;2024-03-07T06:43:42;21.80;;;8.27;;
64851;SDS011;56050;55.558;-4.644;2024-03-07T06:46:09;19.10;;;7.72;;
64851;SDS011;56050;55.558;-4.644;2024-03-07T06:51:00;23.77;;;8.32;;
64851;SDS011;56050;55.558;-4.644;2024-03-07T06:53:26;23.58;;;8.77;;
64851;SDS011;56050;55.558;-4.644;2024-03-07T06:55:53;19.00;;;7.93;;
64851;SDS011;56050;55.558;-4.644;2024-03-07T07:00:48;22.30;;;9.02;;
64851;SDS011;56050;55.558;-4.644;2024-03-07T07:03:17;17.35;;;7.68;;
64851;SDS011;56050;55.558;-4.644;2024-03-07T07:05:44;21.70;;;7.82;;
64851;SDS011;56050;55.558;-4.644;2024-03-07T07:10:36;22.13;;;7.93;;
64851;SDS011;56050;55.558;-4.644;2024-03-07T07:13:02;20.02;;;8.55;;
64851;SDS011;56050;55.558;-4.644;2024-03-07T07:15:29;25.13;;;9.07;;
64851;SDS011;56050;55.558;-4.644;2024-03-07T07:20:20;17.07;;;6.47;;
64851;SDS011;56050;55.558;-4.644;2024-03-07T07:22:49;19.42;;;8.23;;
64851;SDS011;56050;55.558;-4.644;2024-03-07T07:25:15;22.15;;;7.93;;
64851;SDS011;56050;55.558;-4.644;2024-03-07T07:30:13;25.33;;;8.77;;
64851;SDS011;56050;55.558;-4.644;2024-03-07T07:32:40;20.77;;;9.30;;
64851;SDS011;56050;55.558;-4.644;2024-03-07T07:35:08;21.42;;;10.00;;
64851;SDS011;56050;55.558;-4.644;2024-03-07T07:37:39;18.80;;;7.93;;
64851;SDS011;56050;55.558;-4.644;2024-03-07T07:40:06;19.42;;;8.55;;
64851;SDS011;56050;55.558;-4.644;2024-03-07T07:42:34;22.02;;;8.25;;
64851;SDS011;56050;55.558;-4.644;2024-03-07T07:45:06;22.00;;;10.85;;
64851;SDS011;56050;55.558;-4.644;2024-03-07T07:50:09;19.95;;;8.60;;
64851;SDS011;56050;55.558;-4.644;2024-03-07T07:55:08;24.30;;;9.50;;
64851;SDS011;56050;55.558;-4.644;2024-03-07T07:57:43;17.92;;;11.05;;
64851;SDS011;56050;55.558;-4.644;2024-03-07T08:00:32;22.70;;;11.18;;
64851;SDS011;56050;55.558;-4.644;2024-03-07T08:03:03;18.85;;;7.55;;
64851;SDS011;56050;55.558;-4.644;2024-03-07T08:05:31;16.83;;;6.20;;
64851;SDS011;56050;55.558;-4.644;2024-03-07T08:07:59;21.30;;;7.93;;
64851;SDS011;56050;55.558;-4.644;2024-03-07T08:10:28;21.50;;;7.88;;
64851;SDS011;56050;55.558;-4.644;2024-03-07T08:12:54;19.92;;;8.35;;
64851;SDS011;56050;55.558;-4.644;2024-03-07T08:15:20;20.33;;;6.63;;
64851;SDS011;56050;55.558;-4.644;2024-03-07T08:20:12;14.00;;;6.53;;
64851;SDS011;56050;55.558;-4.644;2024-03-07T08:22:39;21.05;;;8.80;;
64851;SDS011;56050;55.558;-4.644;2024-03-07T08:25:13;22.40;;;8.52;;
64851;SDS011;56050;55.558;-4.644;2024-03-07T08:27:41;16.88;;;7.93;;
64851;SDS011;56050;55.558;-4.644;2024-03-07T08:30:08;22.50;;;8.32;;
64851;SDS011;56050;55.558;-4.644;2024-03-07T08:32:47;18.88;;;7.57;;
64851;SDS011;56050;55.558;-4.644;2024-03-07T08:35:14;20.42;;;8.20;;
64851;SDS011;56050;55.558;-4.644;2024-03-07T08:37:44;17.27;;;7.22;;
64851;SDS011;56050;55.558;-4.644;2024-03-07T08:40:11;22.85;;;8.23;;
64851;SDS011;56050;55.558;-4.644;2024-03-07T08:42:44;18.92;;;8.65;;
64851;SDS011;56050;55.558;-4.644;2024-03-07T08:45:11;21.42;;;10.65;;
64851;SDS011;56050;55.558;-4.644;2024-03-07T08:47:42;21.75;;;8.48;;
64851;SDS011;56050;55.558;-4.644;2024-03-07T08:50:08;18.33;;;8.13;;
64851;SDS011;56050;55.558;-4.644;2024-03-07T08:52:35;21.27;;;8.50;;
64851;SDS011;56050;55.558;-4.644;2024-03-07T08:55:02;20.02;;;10.13;;
64851;SDS011;56050;55.558;-4.644;2024-03-07T08:57:27;19.90;;;7.75;;
64851;SDS011;56050;55.558;-4.644;2024-03-07T08:59:53;21.10;;;8.55;;
64851;SDS011;56050;55.558;-4.644;2024-03-07T09:02:18;21.55;;;8.00;;
64851;SDS011;56050;55.558;-4.644;2024-03-07T09:07:09;16.43;;;6.17;;
64851;SDS011;56050;55.558;-4.644;2024-03-07T09:12:01;18.00;;;6.10;;
64851;SDS011;56050;55.558;-4.644;2024-03-07T09:14:27;21.50;;;7.93;;
64851;SDS011;56050;55.558;-4.644;2024-03-07T09:16:53;19.55;;;9.35;;
64851;SDS011;56050;55.558;-4.644;2024-03-07T09:21:48;19.52;;;8.07;;
64851;SDS011;56050;55.558;-4.644;2024-03-07T09:24:17;19.65;;;8.32;;
64851;SDS011;56050;55.558;-4.644;2024-03-07T09:26:46;22.13;;;8.93;;
64851;SDS011;56050;55.558;-4.644;2024-03-07T09:29:12;25.42;;;10.40;;
64851;SDS011;56050;55.558;-4.644;2024-03-07T09:31:38;22.00;;;8.40;;
64851;SDS011;56050;55.558;-4.644;2024-03-07T09:34:05;24.50;;;8.02;;
64851;SDS011;56050;55.558;-4.644;2024-03-07T09:36:30;18.45;;;7.13;;
64851;SDS011;56050;55.558;-4.644;2024-03-07T09:38:56;25.20;;;10.93;;
64851;SDS011;56050;55.558;-4.644;2024-03-07T09:41:23;18.85;;;6.97;;
64851;SDS011;56050;55.558;-4.644;2024-03-07T09:43:51;19.25;;;6.47;;
64851;SDS011;56050;55.558;-4.644;2024-03-07T09:46:21;21.85;;;8.43;;
64851;SDS011;56050;55.558;-4.644;2024-03-07T09:48:49;22.08;;;10.90;;
64851;SDS011;56050;55.558;-4.644;2024-03-07T09:51:18;21.30;;;9.40;;
64851;SDS011;56050;55.558;-4.644;2024-03-07T09:53:49;19.98;;;8.80;;
64851;SDS011;56050;55.558;-4.644;2024-03-07T09:56:21;19.45;;;7.10;;
64851;SDS011;56050;55.558;-4.644;2024-03-07T09:58:48;19.15;;;6.70;;
64851;SDS011;56050;55.558;-4.644;2024-03-07T10:01:15;14.90;;;5.40;;
64851;SDS011;56050;55.558;-4.644;2024-03-07T10:03:44;18.58;;;7.53;;
64851;SDS011;56050;55.558;-4.644;2024-03-07T10:06:12;20.30;;;8.10;;
64851;SDS011;56050;55.558;-4.644;2024-03-07T10:08:38;17.02;;;6.78;;
64851;SDS011;56050;55.558;-4.644;2024-03-07T10:11:05;20.15;;;8.02;;
64851;SDS011;56050;55.558;-4.644;2024-03-07T10:13:33;23.35;;;7.82;;
64851;SDS011;56050;55.558;-4.644;2024-03-07T10:16:00;19.70;;;8.50;;
64851;SDS011;56050;55.558;-4.644;2024-03-07T10:18:26;22.55;;;8.40;;
64851;SDS011;56050;55.558;-4.644;2024-03-07T10:20:55;23.13;;;7.43;;
64851;SDS011;56050;55.558;-4.644;2024-03-07T10:23:22;17.35;;;7.10;;
64851;SDS011;56050;55.558;-4.644;2024-03-07T10:25:49;18.23;;;7.47;;
64851;SDS011;56050;55.558;-4.644;2024-03-07T10:28:18;18.35;;;6.20;;
64851;SDS011;56050;55.558;-4.644;2024-03-07T10:30:46;19.52;;;6.70;;
64851;SDS011;56050;55.558;-4.644;2024-03-07T10:33:13;17.00;;;6.72;;
64851;SDS011;56050;55.558;-4.644;2024-03-07T10:35:38;11.90;;;5.07;;
64851;SDS011;56050;55.558;-4.644;2024-03-07T10:38:04;18.75;;;7.43;;
64851;SDS011;56050;55.558;-4.644;2024-03-07T10:40:33;19.58;;;8.75;;
64851;SDS011;56050;55.558;-4.644;2024-03-07T10:43:02;19.15;;;7.35;;
64851;SDS011;56050;55.558;-4.644;2024-03-07T10:45:35;19.65;;;9.07;;
64851;SDS011;56050;55.558;-4.644;2024-03-07T10:48:11;19.60;;;6.57;;
64851;SDS011;56050;55.558;-4.644;2024-03-07T10:53:12;15.27;;;6.25;;
64851;SDS011;56050;55.558;-4.644;2024-03-07T11:01:32;17.67;;;6.03;;
64851;SDS011;56050;55.558;-4.644;2024-03-07T11:04:00;18.17;;;6.68;;
64851;SDS011;56050;55.558;-4.644;2024-03-07T11:06:30;15.40;;;6.03;;
64851;SDS011;56050;55.558;-4.644;2024-03-07T11:08:59;17.58;;;6.32;;
64851;SDS011;56050;55.558;-4.644;2024-03-07T11:11:37;15.45;;;7.25;;
64851;SDS011;56050;55.558;-4.644;2024-03-07T11:14:06;14.63;;;4.75;;
64851;SDS011;56050;55.558;-4.644;2024-03-07T11:16:36;16.35;;;6.22;;
64851;SDS011;56050;55.558;-4.644;2024-03-07T11:22:05;14.63;;;6.03;;
64851;SDS011;56050;55.558;-4.644;2024-03-07T11:24:59;17.30;;;5.22;;
64851;SDS011;56050;55.558;-4.644;2024-03-07T11:27:26;12.77;;;5.20;;
64851;SDS011;56050;55.558;-4.644;2024-03-07T11:29:52;12.45;;;5.05;;
64851;SDS011;56050;55.558;-4.644;2024-03-07T11:32:18;14.13;;;5.38;;
64851;SDS011;56050;55.558;-4.644;2024-03-07T11:34:47;14.68;;;6.07;;
64851;SDS011;56050;55.558;-4.644;2024-03-07T11:40:13;11.90;;;4.07;;
64851;SDS011;56050;55.558;-4.644;2024-03-07T11:42:59;14.82;;;7.95;;
64851;SDS011;56050;55.558;-4.644;2024-03-07T11:45:30;15.13;;;5.95;;
64851;SDS011;56050;55.558;-4.644;2024-03-07T11:47:59;12.38;;;5.45;;
64851;SDS011;56050;55.558;-4.644;2024-03-07T11:50:40;11.30;;;4.75;;
64851;SDS011;56050;55.558;-4.644;2024-03-07T11:53:07;13.00;;;6.22;;
64851;SDS011;56050;55.558;-4.644;2024-03-07T11:55:37;13.68;;;6.82;;
64851;SDS011;56050;55.558;-4.644;2024-03-07T11:58:18;14.25;;;5.65;;
64851;SDS011;56050;55.558;-4.644;2024-03-07T12:00:46;10.02;;;3.75;;
64851;SDS011;56050;55.558;-4.644;2024-03-07T12:03:13;13.35;;;4.45;;
64851;SDS011;56050;55.558;-4.644;2024-03-07T12:05:42;11.35;;;7.22;;
64851;SDS011;56050;55.558;-4.644;2024-03-07T12:08:09;8.65;;;4.80;;
64851;SDS011;56050;55.558;-4.644;2024-03-07T12:10:36;11.80;;;4.20;;
64851;SDS011;56050;55.558;-4.644;2024-03-07T12:13:04;12.27;;;4.50;;
64851;SDS011;56050;55.558;-4.644;2024-03-07T12:15:30;14.60;;;6.38;;
64851;SDS011;56050;55.558;-4.644;2024-03-07T12:17:58;10.63;;;3.70;;
64851;SDS011;56050;55.558;-4.644;2024-03-07T12:20:27;12.10;;;4.28;;
64851;SDS011;56050;55.558;-4.644;2024-03-07T12:23:01;11.07;;;4.20;;
64851;SDS011;56050;55.558;-4.644;2024-03-07T12:25:27;10.55;;;4.43;;
64851;SDS011;56050;55.558;-4.644;2024-03-07T12:30:31;10.32;;;3.75;;
64851;SDS011;56050;55.558;-4.644;2024-03-07T12:33:01;12.60;;;4.13;;
64851;SDS011;56050;55.558;-4.644;2024-03-07T12:35:29;10.90;;;5.25;;
64851;SDS011;56050;55.558;-4.644;2024-03-07T12:37:56;12.30;;;3.30;;
64851;SDS011;56050;55.558;-4.644;2024-03-07T12:40:22;10.95;;;4.60;;
64851;SDS011;56050;55.558;-4.644;2024-03-07T12:42:51;9.52;;;4.10;;
64851;SDS011;56050;55.558;-4.644;2024-03-07T12:45:20;10.43;;;4.47;;
64851;SDS011;56050;55.558;-4.644;2024-03-07T12:47:51;11.02;;;3.85;;
64851;SDS011;56050;55.558;-4.644;2024-03-07T12:50:19;10.93;;;4.90;;
64851;SDS011;56050;55.558;-4.644;2024-03-07T12:52:48;9.02;;;4.13;;
64851;SDS011;56050;55.558;-4.644;2024-03-07T12:55:17;9.43;;;3.53;;
64851;SDS011;56050;55.558;-4.644;2024-03-07T12:57:49;9.93;;;3.50;;
64851;SDS011;56050;55.558;-4.644;2024-03-07T13:00:17;12.38;;;4.15;;
64851;SDS011;56050;55.558;-4.644;2024-03-07T13:02:46;12.57;;;4.50;;
64851;SDS011;56050;55.558;-4.644;2024-03-07T13:05:12;16.58;;;4.00;;
64851;SDS011;56050;55.558;-4.644;2024-03-07T13:07:45;12.35;;;5.95;;
64851;SDS011;56050;55.558;-4.644;2024-03-07T13:10:12;14.43;;;5.00;;
64851;SDS011;56050;55.558;-4.644;2024-03-07T13:12:40;10.07;;;3.75;;
64851;SDS011;56050;55.558;-4.644;2024-03-07T13:15:09;14.27;;;4.20;;
64851;SDS011;56050;55.558;-4.644;2024-03-07T13:17:35;12.68;;;6.90;;
64851;SDS011;56050;55.558;-4.644;2024-03-07T13:20:01;15.40;;;4.85;;
64851;SDS011;56050;55.558;-4.644;2024-03-07T13:22:26;11.73;;;4.70;;
64851;SDS011;56050;55.558;-4.644;2024-03-07T13:24:52;11.75;;;4.30;;
64851;SDS011;56050;55.558;-4.644;2024-03-07T13:27:18;10.82;;;6.88;;
64851;SDS011;56050;55.558;-4.644;2024-03-07T13:29:53;14.85;;;4.90;;
64851;SDS011;56050;55.558;-4.644;2024-03-07T13:32:18;14.10;;;4.65;;
64851;SDS011;56050;55.558;-4.644;2024-03-07T13:34:44;11.75;;;4.43;;
64851;SDS011;56050;55.558;-4.644;2024-03-07T13:37:10;10.13;;;4.40;;
64851;SDS011;56050;55.558;-4.644;2024-03-07T13:39:39;11.27;;;4.05;;
64851;SDS011;56050;55.558;-4.644;2024-03-07T13:42:04;11.60;;;3.60;;
64851;SDS011;56050;55.558;-4.644;2024-03-07T13:44:30;10.75;;;3.83;;
64851;SDS011;56050;55.558;-4.644;2024-03-07T13:46:55;9.43;;;3.38;;
64851;SDS011;56050;55.558;-4.644;2024-03-07T13:49:24;7.30;;;2.92;;
64851;SDS011;56050;55.558;-4.644;2024-03-07T13:51:53;12.95;;;5.18;;
64851;SDS011;56050;55.558;-4.644;2024-03-07T13:54:25;12.32;;;3.45;;
64851;SDS011;56050;55.558;-4.644;2024-03-07T14:05:42;8.05;;;4.05;;
64851;SDS011;56050;55.558;-4.644;2024-03-07T14:11:41;8.25;;;3.30;;
64851;SDS011;56050;55.558;-4.644;2024-03-07T14:23:07;10.57;;;3.50;;
64851;SDS011;56050;55.558;-4.644;2024-03-07T14:31:05;12.70;;;3.97;;
64851;SDS011;56050;55.558;-4.644;2024-03-07T14:36:32;9.60;;;3.65;;
64851;SDS011;56050;55.558;-4.644;2024-03-07T14:39:02;10.43;;;4.32;;
64851;SDS011;56050;55.558;-4.644;2024-03-07T14:41:43;8.85;;;5.28;;
64851;SDS011;56050;55.558;-4.644;2024-03-07T14:44:13;11.60;;;3.85;;
64851;SDS011;56050;55.558;-4.644;2024-03-07T14:46:39;7.25;;;3.30;;
64851;SDS011;56050;55.558;-4.644;2024-03-07T14:49:05;9.13;;;3.03;;
64851;SDS011;56050;55.558;-4.644;2024-03-07T14:51:33;9.80;;;3.67;;
64851;SDS011;56050;55.558;-4.644;2024-03-07T14:53:59;9.10;;;4.80;;
64851;SDS011;56050;55.558;-4.644;2024-03-07T14:56:28;10.23;;;3.45;;
64851;SDS011;56050;55.558;-4.644;2024-03-07T14:58:53;9.00;;;3.80;;
64851;SDS011;56050;55.558;-4.644;2024-03-07T15:01:19;12.82;;;4.00;;
64851;SDS011;56050;55.558;-4.644;2024-03-07T15:03:44;9.68;;;4.20;;
64851;SDS011;56050;55.558;-4.644;2024-03-07T15:06:10;7.90;;;3.47;;
64851;SDS011;56050;55.558;-4.644;2024-03-07T15:08:40;10.30;;;3.58;;
64851;SDS011;56050;55.558;-4.644;2024-03-07T15:11:15;9.40;;;5.55;;
64851;SDS011;56050;55.558;-4.644;2024-03-07T15:13:49;9.68;;;4.38;;
64851;SDS011;56050;55.558;-4.644;2024-03-07T15:16:14;11.38;;;4.40;;
64851;SDS011;56050;55.558;-4.644;2024-03-07T15:18:40;6.88;;;3.22;;
64851;SDS011;56050;55.558;-4.644;2024-03-07T15:21:08;10.60;;;4.07;;
64851;SDS011;56050;55.558;-4.644;2024-03-07T15:23:35;9.45;;;3.70;;
64851;SDS011;56050;55.558;-4.644;2024-03-07T15:26:00;11.88;;;3.97;;
64851;SDS011;56050;55.558;-4.644;2024-03-07T15:28:27;10.45;;;4.35;;
64851;SDS011;56050;55.558;-4.644;2024-03-07T15:30:53;8.40;;;3.22;;
64851;SDS011;56050;55.558;-4.644;2024-03-07T15:33:18;9.85;;;4.38;;
64851;SDS011;56050;55.558;-4.644;2024-03-07T15:35:47;10.13;;;4.18;;
64851;SDS011;56050;55.558;-4.644;2024-03-07T15:38:13;11.52;;;4.97;;
64851;SDS011;56050;55.558;-4.644;2024-03-07T15:40:39;13.90;;;4.03;;
64851;SDS011;56050;55.558;-4.644;2024-03-07T15:43:05;12.68;;;4.65;;
64851;SDS011;56050;55.558;-4.644;2024-03-07T15:45:33;9.40;;;4.18;;
64851;SDS011;56050;55.558;-4.644;2024-03-07T15:47:59;9.52;;;3.83;;
64851;SDS011;56050;55.558;-4.644;2024-03-07T15:50:26;10.65;;;4.15;;
64851;SDS011;56050;55.558;-4.644;2024-03-07T15:52:55;12.82;;;6.07;;
64851;SDS011;56050;55.558;-4.644;2024-03-07T15:55:25;8.70;;;4.03;;
64851;SDS011;56050;55.558;-4.644;2024-03-07T15:57:51;12.00;;;4.88;;
64851;SDS011;56050;55.558;-4.644;2024-03-07T16:00:19;14.20;;;4.32;;
64851;SDS011;56050;55.558;-4.644;2024-03-07T16:02:58;10.70;;;4.55;;
64851;SDS011;56050;55.558;-4.644;2024-03-07T16:05:28;11.95;;;6.13;;
64851;SDS011;56050;55.558;-4.644;2024-03-07T16:07:56;15.48;;;5.03;;
64851;SDS011;56050;55.558;-4.644;2024-03-07T16:10:23;11.43;;;4.40;;
64851;SDS011;56050;55.558;-4.644;2024-03-07T16:12:52;13.75;;;3.97;;
64851;SDS011;56050;55.558;-4.644;2024-03-07T16:15:19;11.82;;;4.50;;
64851;SDS011;56050;55.558;-4.644;2024-03-07T16:17:47;12.98;;;5.43;;
64851;SDS011;56050;55.558;-4.644;2024-03-07T16:20:13;11.00;;;4.90;;
64851;SDS011;56050;55.558;-4.644;2024-03-07T16:22:39;13.30;;;4.80;;
64851;SDS011;56050;55.558;-4.644;2024-03-07T16:25:10;12.07;;;5.85;;
64851;SDS011;56050;55.558;-4.644;2024-03-07T16:27:37;9.82;;;3.72;;
64851;SDS011;56050;55.558;-4.644;2024-03-07T16:30:06;12.85;;;4.45;;
64851;SDS011;56050;55.558;-4.644;2024-03-07T16:32:35;12.15;;;5.10;;
64851;SDS011;56050;55.558;-4.644;2024-03-07T16:35:04;10.52;;;4.07;;
64851;SDS011;56050;55.558;-4.644;2024-03-07T16:37:44;11.95;;;4.88;;
64851;SDS011;56050;55.558;-4.644;2024-03-07T16:40:11;10.50;;;4.43;;
64851;SDS011;56050;55.558;-4.644;2024-03-07T16:42:38;12.98;;;4.28;;
64851;SDS011;56050;55.558;-4.644;2024-03-07T16:45:11;12.40;;;5.18;;
64851;SDS011;56050;55.558;-4.644;2024-03-07T16:47:42;15.88;;;5.38;;
64851;SDS011;56050;55.558;-4.644;2024-03-07T16:50:18;12.32;;;4.18;;
64851;SDS011;56050;55.558;-4.644;2024-03-07T16:52:44;9.10;;;3.83;;
64851;SDS011;56050;55.558;-4.644;2024-03-07T16:55:12;10.70;;;4.55;;
64851;SDS011;56050;55.558;-4.644;2024-03-07T16:57:39;14.10;;;4.28;;
64851;SDS011;56050;55.558;-4.644;2024-03-07T17:00:07;13.25;;;4.88;;
64851;SDS011;56050;55.558;-4.644;2024-03-07T17:02:35;14.15;;;4.95;;
64851;SDS011;56050;55.558;-4.644;2024-03-07T17:05:02;10.73;;;3.95;;
64851;SDS011;56050;55.558;-4.644;2024-03-07T17:07:30;9.57;;;4.00;;
64851;SDS011;56050;55.558;-4.644;2024-03-07T17:09:56;13.90;;;5.95;;
64851;SDS011;56050;55.558;-4.644;2024-03-07T17:12:22;11.25;;;4.63;;
64851;SDS011;56050;55.558;-4.644;2024-03-07T17:14:47;13.45;;;4.60;;